CYSM

Fort Smith Airport

Fort Smith, Northwest Territories, Canada
TAF AMD CYSM 230808Z 2308/2318 30005KT P6SM SCT010 BKN100 TEMPO 2308/2310 4SM -SN BR OVC009 FM231000 30005KT P6SM FEW009 FEW080 PROB30 2310/2314 1SM BR FM231400 30005KT P6SM SKC RMK NXT FCST BY 231200Z
Issued Valid From Valid To
Apr-23 @ 08:08 UTC
(an hour ago)
Apr-23 @ 08:00 UTC
(2 hours ago)
Apr-23 @ 18:00 UTC
(in 8 hours)
Apr-23 @ 08:00 to Apr-23 @ 10:00
TAF AMD CYSM 230808Z 2308/2318 30005KT P6SM SCT010 BKN100
Wind Visibility Clouds
300° at 5 knots Greater than 6 miles
  • Scattered at 1,000' AGL
  • Broken at 10,000' AGL
Temporary Apr-23 @ 08:00 to Apr-23 @ 10:00
TEMPO 2308/2310 4SM -SN BR OVC009
Visibility Clouds Conditions
4 miles
  • Overcast at 900' AGL
  • Light Snow
  • Mist
From Apr-23 @ 10:00 to Apr-23 @ 14:00
FM231000 30005KT P6SM FEW009 FEW080
Wind Visibility Clouds
300° at 5 knots Greater than 6 miles
  • Few at 900' AGL
  • Few at 8,000' AGL
Probable  (Probability 30%) Apr-23 @ 10:00 to Apr-23 @ 14:00
PROB30 2310/2314 1SM BR
Visibility Conditions
1 miles
  • Mist
From Apr-23 @ 14:00 to Apr-23 @ 18:00
FM231400 30005KT P6SM SKC RMK NXT FCST BY 231200Z
Wind Visibility Clouds
300° at 5 knots Greater than 6 miles
  • Clear skies
TAF AMD CYSM 230808Z 2308/2318 30005KT P6SM SCT010 BKN100 TEMPO 2308/2310 4SM -SN BR OVC009 FM231000 30005KT P6SM FEW009 FEW080 PROB30 2310/2314 1SM BR FM231400 30005KT P6SM SKC RMK NXT FCST BY 231200Z
Issued Apr-23 @ 08:08 UTC
(an hour ago)
Valid From Apr-23 @ 08:00 UTC
(2 hours ago)
Valid To Apr-23 @ 18:00 UTC
(in 8 hours)
Apr-23 @ 08:00 - Apr-23 @ 10:00
Wind Visibility
300° at 5 knots Greater than 6 miles
Clouds
  • Scattered at 1,000' AGL
  • Broken at 10,000' AGL
Temporary Apr-23 @ 08:00 - Apr-23 @ 10:00
Clouds
  • Overcast at 900' AGL
Conditions
  • Light Snow
  • Mist
From Apr-23 @ 10:00 - Apr-23 @ 14:00
Wind Visibility
300° at 5 knots Greater than 6 miles
Clouds
  • Few at 900' AGL
  • Few at 8,000' AGL
Probability 30% Probable Apr-23 @ 10:00 - Apr-23 @ 14:00
Conditions
  • Mist
From Apr-23 @ 14:00 - Apr-23 @ 18:00
Wind Visibility
300° at 5 knots Greater than 6 miles
Clouds
  • Clear skies